sensor_id;sensor_type;location;lat;lon;timestamp;P1;durP1;ratioP1;P2;durP2;ratioP2
29938;SDS011;16799;50.844;5.304;2023-12-14T00:01:43;58.00;;;28.23;;
29938;SDS011;16799;50.844;5.304;2023-12-14T00:04:11;59.33;;;28.87;;
29938;SDS011;16799;50.844;5.304;2023-12-14T00:06:37;57.77;;;27.90;;
29938;SDS011;16799;50.844;5.304;2023-12-14T00:09:02;63.10;;;29.70;;
29938;SDS011;16799;50.844;5.304;2023-12-14T00:11:28;62.13;;;30.10;;
29938;SDS011;16799;50.844;5.304;2023-12-14T00:13:53;76.20;;;30.03;;
29938;SDS011;16799;50.844;5.304;2023-12-14T00:16:19;97.13;;;34.47;;
29938;SDS011;16799;50.844;5.304;2023-12-14T00:18:45;79.77;;;30.90;;
29938;SDS011;16799;50.844;5.304;2023-12-14T00:21:11;77.97;;;31.40;;
29938;SDS011;16799;50.844;5.304;2023-12-14T00:23:36;72.70;;;30.60;;
29938;SDS011;16799;50.844;5.304;2023-12-14T00:26:02;96.03;;;34.73;;
29938;SDS011;16799;50.844;5.304;2023-12-14T00:28:28;80.20;;;28.20;;
29938;SDS011;16799;50.844;5.304;2023-12-14T00:30:54;94.33;;;34.90;;
29938;SDS011;16799;50.844;5.304;2023-12-14T00:33:19;84.13;;;37.60;;
29938;SDS011;16799;50.844;5.304;2023-12-14T00:35:45;92.13;;;35.60;;
29938;SDS011;16799;50.844;5.304;2023-12-14T00:38:11;93.03;;;33.57;;
29938;SDS011;16799;50.844;5.304;2023-12-14T00:40:36;95.17;;;33.57;;
29938;SDS011;16799;50.844;5.304;2023-12-14T00:43:02;82.83;;;33.83;;
29938;SDS011;16799;50.844;5.304;2023-12-14T00:45:28;100.77;;;37.67;;
29938;SDS011;16799;50.844;5.304;2023-12-14T00:47:53;93.17;;;35.40;;
29938;SDS011;16799;50.844;5.304;2023-12-14T00:50:19;85.73;;;38.10;;
29938;SDS011;16799;50.844;5.304;2023-12-14T00:52:45;96.90;;;36.73;;
29938;SDS011;16799;50.844;5.304;2023-12-14T00:55:10;108.63;;;35.17;;
29938;SDS011;16799;50.844;5.304;2023-12-14T00:57:36;87.60;;;34.27;;
29938;SDS011;16799;50.844;5.304;2023-12-14T01:00:02;101.13;;;35.63;;
29938;SDS011;16799;50.844;5.304;2023-12-14T01:02:28;97.40;;;37.07;;
29938;SDS011;16799;50.844;5.304;2023-12-14T01:04:54;105.37;;;38.53;;
29938;SDS011;16799;50.844;5.304;2023-12-14T01:07:20;116.10;;;40.40;;
29938;SDS011;16799;50.844;5.304;2023-12-14T01:09:45;117.40;;;39.80;;
29938;SDS011;16799;50.844;5.304;2023-12-14T01:12:11;106.30;;;40.40;;
29938;SDS011;16799;50.844;5.304;2023-12-14T01:14:37;109.03;;;38.40;;
29938;SDS011;16799;50.844;5.304;2023-12-14T01:17:02;125.70;;;39.67;;
29938;SDS011;16799;50.844;5.304;2023-12-14T01:19:28;98.27;;;36.87;;
29938;SDS011;16799;50.844;5.304;2023-12-14T01:21:54;107.73;;;37.07;;
29938;SDS011;16799;50.844;5.304;2023-12-14T01:24:20;104.43;;;40.57;;
29938;SDS011;16799;50.844;5.304;2023-12-14T01:26:46;103.60;;;37.13;;
29938;SDS011;16799;50.844;5.304;2023-12-14T01:29:11;108.63;;;38.20;;
29938;SDS011;16799;50.844;5.304;2023-12-14T01:31:37;109.70;;;36.30;;
29938;SDS011;16799;50.844;5.304;2023-12-14T01:34:03;83.23;;;34.13;;
29938;SDS011;16799;50.844;5.304;2023-12-14T01:36:28;94.57;;;36.17;;
29938;SDS011;16799;50.844;5.304;2023-12-14T01:38:54;110.17;;;36.57;;
29938;SDS011;16799;50.844;5.304;2023-12-14T01:41:19;104.03;;;39.87;;
29938;SDS011;16799;50.844;5.304;2023-12-14T01:43:45;103.17;;;36.17;;
29938;SDS011;16799;50.844;5.304;2023-12-14T01:46:11;114.90;;;39.17;;
29938;SDS011;16799;50.844;5.304;2023-12-14T01:48:38;101.40;;;39.17;;
29938;SDS011;16799;50.844;5.304;2023-12-14T01:51:03;95.63;;;36.67;;
29938;SDS011;16799;50.844;5.304;2023-12-14T01:53:29;95.90;;;38.27;;
29938;SDS011;16799;50.844;5.304;2023-12-14T01:55:55;121.80;;;40.77;;
29938;SDS011;16799;50.844;5.304;2023-12-14T01:58:21;107.10;;;37.53;;
29938;SDS011;16799;50.844;5.304;2023-12-14T02:00:59;125.70;;;38.93;;
29938;SDS011;16799;50.844;5.304;2023-12-14T02:03:43;101.50;;;36.43;;
29938;SDS011;16799;50.844;5.304;2023-12-14T02:06:11;93.70;;;37.70;;
29938;SDS011;16799;50.844;5.304;2023-12-14T02:08:36;103.70;;;39.37;;
29938;SDS011;16799;50.844;5.304;2023-12-14T02:11:02;115.83;;;40.03;;
29938;SDS011;16799;50.844;5.304;2023-12-14T02:13:28;115.00;;;37.20;;
29938;SDS011;16799;50.844;5.304;2023-12-14T02:15:53;91.10;;;35.77;;
29938;SDS011;16799;50.844;5.304;2023-12-14T02:18:19;82.03;;;32.23;;
29938;SDS011;16799;50.844;5.304;2023-12-14T02:20:45;98.03;;;35.00;;
29938;SDS011;16799;50.844;5.304;2023-12-14T02:23:10;96.30;;;35.57;;
29938;SDS011;16799;50.844;5.304;2023-12-14T02:25:36;97.23;;;33.77;;
29938;SDS011;16799;50.844;5.304;2023-12-14T02:28:01;79.47;;;32.83;;
29938;SDS011;16799;50.844;5.304;2023-12-14T02:30:27;91.00;;;30.93;;
29938;SDS011;16799;50.844;5.304;2023-12-14T02:32:53;84.50;;;32.47;;
29938;SDS011;16799;50.844;5.304;2023-12-14T02:35:18;84.00;;;32.50;;
29938;SDS011;16799;50.844;5.304;2023-12-14T02:37:44;108.10;;;34.90;;
29938;SDS011;16799;50.844;5.304;2023-12-14T02:40:10;78.77;;;29.70;;
29938;SDS011;16799;50.844;5.304;2023-12-14T02:42:36;85.33;;;30.83;;
29938;SDS011;16799;50.844;5.304;2023-12-14T02:45:02;68.97;;;29.57;;
29938;SDS011;16799;50.844;5.304;2023-12-14T02:47:28;71.03;;;29.97;;
29938;SDS011;16799;50.844;5.304;2023-12-14T02:49:55;79.27;;;28.20;;
29938;SDS011;16799;50.844;5.304;2023-12-14T02:52:21;73.50;;;27.23;;
29938;SDS011;16799;50.844;5.304;2023-12-14T02:54:47;63.77;;;25.70;;
29938;SDS011;16799;50.844;5.304;2023-12-14T02:57:12;71.03;;;26.47;;
29938;SDS011;16799;50.844;5.304;2023-12-14T02:59:38;67.30;;;26.30;;
29938;SDS011;16799;50.844;5.304;2023-12-14T03:02:04;62.77;;;26.37;;
29938;SDS011;16799;50.844;5.304;2023-12-14T03:04:30;55.13;;;23.30;;
29938;SDS011;16799;50.844;5.304;2023-12-14T03:06:56;55.70;;;22.13;;
29938;SDS011;16799;50.844;5.304;2023-12-14T03:09:22;48.57;;;23.03;;
29938;SDS011;16799;50.844;5.304;2023-12-14T03:11:48;65.20;;;20.37;;
29938;SDS011;16799;50.844;5.304;2023-12-14T03:14:15;49.00;;;20.77;;
29938;SDS011;16799;50.844;5.304;2023-12-14T03:16:40;52.43;;;22.90;;
29938;SDS011;16799;50.844;5.304;2023-12-14T03:19:06;48.60;;;20.00;;
29938;SDS011;16799;50.844;5.304;2023-12-14T03:21:31;58.27;;;22.87;;
29938;SDS011;16799;50.844;5.304;2023-12-14T03:23:57;51.90;;;22.90;;
29938;SDS011;16799;50.844;5.304;2023-12-14T03:26:23;55.27;;;21.97;;
29938;SDS011;16799;50.844;5.304;2023-12-14T03:28:48;61.73;;;23.60;;
29938;SDS011;16799;50.844;5.304;2023-12-14T03:31:14;58.27;;;25.30;;
29938;SDS011;16799;50.844;5.304;2023-12-14T03:33:40;57.87;;;25.37;;
29938;SDS011;16799;50.844;5.304;2023-12-14T03:36:06;61.63;;;26.77;;
29938;SDS011;16799;50.844;5.304;2023-12-14T03:38:32;58.67;;;27.63;;
29938;SDS011;16799;50.844;5.304;2023-12-14T03:40:58;72.23;;;27.43;;
29938;SDS011;16799;50.844;5.304;2023-12-14T03:43:24;60.77;;;22.17;;
29938;SDS011;16799;50.844;5.304;2023-12-14T03:45:49;58.23;;;22.77;;
29938;SDS011;16799;50.844;5.304;2023-12-14T03:48:15;49.23;;;20.27;;
29938;SDS011;16799;50.844;5.304;2023-12-14T03:50:41;54.00;;;22.93;;
29938;SDS011;16799;50.844;5.304;2023-12-14T03:53:07;50.07;;;22.67;;
29938;SDS011;16799;50.844;5.304;2023-12-14T03:55:32;44.23;;;20.73;;
29938;SDS011;16799;50.844;5.304;2023-12-14T03:57:58;61.73;;;23.93;;
29938;SDS011;16799;50.844;5.304;2023-12-14T04:00:24;57.57;;;24.07;;
29938;SDS011;16799;50.844;5.304;2023-12-14T04:02:50;50.17;;;21.87;;
29938;SDS011;16799;50.844;5.304;2023-12-14T04:05:15;60.80;;;24.80;;
29938;SDS011;16799;50.844;5.304;2023-12-14T04:07:41;46.27;;;21.23;;
29938;SDS011;16799;50.844;5.304;2023-12-14T04:10:07;47.17;;;20.47;;
29938;SDS011;16799;50.844;5.304;2023-12-14T04:12:37;54.03;;;22.43;;
29938;SDS011;16799;50.844;5.304;2023-12-14T04:15:04;49.70;;;20.70;;
29938;SDS011;16799;50.844;5.304;2023-12-14T04:17:30;42.60;;;18.70;;
29938;SDS011;16799;50.844;5.304;2023-12-14T04:19:56;50.20;;;19.50;;
29938;SDS011;16799;50.844;5.304;2023-12-14T04:22:22;47.47;;;18.50;;
29938;SDS011;16799;50.844;5.304;2023-12-14T04:24:48;47.87;;;18.33;;
29938;SDS011;16799;50.844;5.304;2023-12-14T04:27:14;48.20;;;21.80;;
29938;SDS011;16799;50.844;5.304;2023-12-14T04:29:40;56.33;;;23.20;;
29938;SDS011;16799;50.844;5.304;2023-12-14T04:32:06;55.83;;;21.27;;
29938;SDS011;16799;50.844;5.304;2023-12-14T04:34:31;65.13;;;25.80;;
29938;SDS011;16799;50.844;5.304;2023-12-14T04:36:57;64.53;;;23.57;;
29938;SDS011;16799;50.844;5.304;2023-12-14T04:39:23;48.87;;;24.80;;
29938;SDS011;16799;50.844;5.304;2023-12-14T04:41:50;53.10;;;22.00;;
29938;SDS011;16799;50.844;5.304;2023-12-14T04:44:17;57.13;;;23.20;;
29938;SDS011;16799;50.844;5.304;2023-12-14T04:46:43;58.47;;;24.10;;
29938;SDS011;16799;50.844;5.304;2023-12-14T04:49:09;50.23;;;22.57;;
29938;SDS011;16799;50.844;5.304;2023-12-14T04:51:34;73.97;;;23.93;;
29938;SDS011;16799;50.844;5.304;2023-12-14T04:54:00;62.53;;;23.90;;
29938;SDS011;16799;50.844;5.304;2023-12-14T04:56:25;61.40;;;25.97;;
29938;SDS011;16799;50.844;5.304;2023-12-14T04:58:51;60.70;;;22.97;;
29938;SDS011;16799;50.844;5.304;2023-12-14T05:01:17;65.67;;;23.40;;
29938;SDS011;16799;50.844;5.304;2023-12-14T05:03:43;63.60;;;22.20;;
29938;SDS011;16799;50.844;5.304;2023-12-14T05:06:09;55.37;;;22.10;;
29938;SDS011;16799;50.844;5.304;2023-12-14T05:08:34;52.80;;;24.37;;
29938;SDS011;16799;50.844;5.304;2023-12-14T05:11:01;56.77;;;25.83;;
29938;SDS011;16799;50.844;5.304;2023-12-14T05:13:28;62.50;;;24.70;;
29938;SDS011;16799;50.844;5.304;2023-12-14T05:15:53;61.53;;;23.30;;
29938;SDS011;16799;50.844;5.304;2023-12-14T05:18:19;67.93;;;22.27;;
29938;SDS011;16799;50.844;5.304;2023-12-14T05:20:45;69.07;;;24.33;;
29938;SDS011;16799;50.844;5.304;2023-12-14T05:23:11;51.93;;;21.30;;
29938;SDS011;16799;50.844;5.304;2023-12-14T05:25:37;69.70;;;25.77;;
29938;SDS011;16799;50.844;5.304;2023-12-14T05:28:03;62.63;;;23.30;;
29938;SDS011;16799;50.844;5.304;2023-12-14T05:30:29;55.63;;;23.30;;
29938;SDS011;16799;50.844;5.304;2023-12-14T05:32:55;63.17;;;23.33;;
29938;SDS011;16799;50.844;5.304;2023-12-14T05:35:21;63.73;;;27.07;;
29938;SDS011;16799;50.844;5.304;2023-12-14T05:37:46;62.33;;;23.50;;
29938;SDS011;16799;50.844;5.304;2023-12-14T05:40:12;58.10;;;20.63;;
29938;SDS011;16799;50.844;5.304;2023-12-14T05:42:38;41.80;;;17.53;;
29938;SDS011;16799;50.844;5.304;2023-12-14T05:45:04;43.33;;;18.83;;
29938;SDS011;16799;50.844;5.304;2023-12-14T05:47:31;35.13;;;16.47;;
29938;SDS011;16799;50.844;5.304;2023-12-14T05:49:58;50.07;;;18.47;;
29938;SDS011;16799;50.844;5.304;2023-12-14T05:52:24;46.43;;;16.07;;
29938;SDS011;16799;50.844;5.304;2023-12-14T05:54:49;41.40;;;19.30;;
29938;SDS011;16799;50.844;5.304;2023-12-14T05:57:15;40.43;;;19.20;;
29938;SDS011;16799;50.844;5.304;2023-12-14T05:59:41;52.30;;;22.57;;
29938;SDS011;16799;50.844;5.304;2023-12-14T06:02:06;43.70;;;20.60;;
29938;SDS011;16799;50.844;5.304;2023-12-14T06:04:33;40.30;;;18.07;;
29938;SDS011;16799;50.844;5.304;2023-12-14T06:06:58;38.23;;;17.57;;
29938;SDS011;16799;50.844;5.304;2023-12-14T06:09:24;38.73;;;18.50;;
29938;SDS011;16799;50.844;5.304;2023-12-14T06:11:58;34.83;;;17.57;;
29938;SDS011;16799;50.844;5.304;2023-12-14T06:14:24;38.50;;;18.90;;
29938;SDS011;16799;50.844;5.304;2023-12-14T06:16:50;44.33;;;19.03;;
29938;SDS011;16799;50.844;5.304;2023-12-14T06:19:16;45.60;;;18.50;;
29938;SDS011;16799;50.844;5.304;2023-12-14T06:21:41;38.33;;;20.37;;
29938;SDS011;16799;50.844;5.304;2023-12-14T06:24:07;42.37;;;19.13;;
29938;SDS011;16799;50.844;5.304;2023-12-14T06:26:33;47.80;;;21.93;;
29938;SDS011;16799;50.844;5.304;2023-12-14T06:28:58;52.80;;;22.93;;
29938;SDS011;16799;50.844;5.304;2023-12-14T06:31:24;45.37;;;24.13;;
29938;SDS011;16799;50.844;5.304;2023-12-14T06:33:49;38.57;;;18.77;;
29938;SDS011;16799;50.844;5.304;2023-12-14T06:36:15;48.97;;;22.10;;
29938;SDS011;16799;50.844;5.304;2023-12-14T06:38:45;46.60;;;22.23;;
29938;SDS011;16799;50.844;5.304;2023-12-14T06:41:22;47.77;;;21.87;;
29938;SDS011;16799;50.844;5.304;2023-12-14T06:43:49;43.37;;;21.13;;
29938;SDS011;16799;50.844;5.304;2023-12-14T06:46:14;45.90;;;21.73;;
29938;SDS011;16799;50.844;5.304;2023-12-14T06:48:41;44.93;;;23.70;;
29938;SDS011;16799;50.844;5.304;2023-12-14T06:51:06;48.43;;;23.43;;
29938;SDS011;16799;50.844;5.304;2023-12-14T06:53:33;52.57;;;25.23;;
29938;SDS011;16799;50.844;5.304;2023-12-14T06:56:04;58.90;;;23.20;;
29938;SDS011;16799;50.844;5.304;2023-12-14T06:58:30;49.30;;;25.83;;
29938;SDS011;16799;50.844;5.304;2023-12-14T07:00:56;52.33;;;25.37;;
29938;SDS011;16799;50.844;5.304;2023-12-14T07:03:22;44.07;;;23.17;;
29938;SDS011;16799;50.844;5.304;2023-12-14T07:05:48;55.83;;;25.63;;
29938;SDS011;16799;50.844;5.304;2023-12-14T07:08:13;47.97;;;25.00;;
29938;SDS011;16799;50.844;5.304;2023-12-14T07:10:41;48.20;;;26.40;;
29938;SDS011;16799;50.844;5.304;2023-12-14T07:13:07;55.30;;;26.83;;
29938;SDS011;16799;50.844;5.304;2023-12-14T07:15:33;45.67;;;22.80;;
29938;SDS011;16799;50.844;5.304;2023-12-14T07:17:59;47.33;;;26.13;;
29938;SDS011;16799;50.844;5.304;2023-12-14T07:20:24;46.70;;;24.00;;
29938;SDS011;16799;50.844;5.304;2023-12-14T07:22:50;52.07;;;22.40;;
29938;SDS011;16799;50.844;5.304;2023-12-14T07:25:16;45.73;;;22.83;;
29938;SDS011;16799;50.844;5.304;2023-12-14T07:27:41;45.77;;;22.40;;
29938;SDS011;16799;50.844;5.304;2023-12-14T07:30:08;54.97;;;23.30;;
29938;SDS011;16799;50.844;5.304;2023-12-14T07:32:34;50.27;;;23.37;;
29938;SDS011;16799;50.844;5.304;2023-12-14T07:35:00;51.63;;;24.30;;
29938;SDS011;16799;50.844;5.304;2023-12-14T07:37:25;47.70;;;23.83;;
29938;SDS011;16799;50.844;5.304;2023-12-14T07:39:51;42.83;;;20.43;;
29938;SDS011;16799;50.844;5.304;2023-12-14T07:42:17;46.97;;;23.63;;
29938;SDS011;16799;50.844;5.304;2023-12-14T07:44:45;42.63;;;22.40;;
29938;SDS011;16799;50.844;5.304;2023-12-14T07:47:11;51.63;;;21.60;;
29938;SDS011;16799;50.844;5.304;2023-12-14T07:49:36;47.20;;;23.40;;
29938;SDS011;16799;50.844;5.304;2023-12-14T07:52:02;40.87;;;21.90;;
29938;SDS011;16799;50.844;5.304;2023-12-14T07:54:28;42.83;;;21.90;;
29938;SDS011;16799;50.844;5.304;2023-12-14T07:56:54;44.20;;;22.47;;
29938;SDS011;16799;50.844;5.304;2023-12-14T07:59:20;44.97;;;21.03;;
29938;SDS011;16799;50.844;5.304;2023-12-14T08:01:46;48.63;;;21.23;;
29938;SDS011;16799;50.844;5.304;2023-12-14T08:04:12;47.47;;;24.60;;
29938;SDS011;16799;50.844;5.304;2023-12-14T08:06:37;51.77;;;22.30;;
29938;SDS011;16799;50.844;5.304;2023-12-14T08:09:07;49.77;;;23.30;;
29938;SDS011;16799;50.844;5.304;2023-12-14T08:11:33;53.83;;;23.77;;
29938;SDS011;16799;50.844;5.304;2023-12-14T08:13:59;48.73;;;23.93;;
29938;SDS011;16799;50.844;5.304;2023-12-14T08:16:24;48.73;;;22.20;;
29938;SDS011;16799;50.844;5.304;2023-12-14T08:18:50;54.57;;;25.00;;
29938;SDS011;16799;50.844;5.304;2023-12-14T08:21:18;48.63;;;23.77;;
29938;SDS011;16799;50.844;5.304;2023-12-14T08:23:43;54.87;;;24.00;;
29938;SDS011;16799;50.844;5.304;2023-12-14T08:26:09;53.70;;;23.80;;
29938;SDS011;16799;50.844;5.304;2023-12-14T08:28:38;44.90;;;22.37;;
29938;SDS011;16799;50.844;5.304;2023-12-14T08:31:04;54.10;;;25.70;;
29938;SDS011;16799;50.844;5.304;2023-12-14T08:33:30;61.40;;;27.30;;
29938;SDS011;16799;50.844;5.304;2023-12-14T08:35:56;51.10;;;23.10;;
29938;SDS011;16799;50.844;5.304;2023-12-14T08:38:22;56.70;;;23.87;;
29938;SDS011;16799;50.844;5.304;2023-12-14T08:40:47;43.37;;;21.47;;
29938;SDS011;16799;50.844;5.304;2023-12-14T08:43:13;48.30;;;21.50;;
29938;SDS011;16799;50.844;5.304;2023-12-14T08:45:39;56.37;;;25.37;;
29938;SDS011;16799;50.844;5.304;2023-12-14T08:48:05;49.20;;;22.17;;
29938;SDS011;16799;50.844;5.304;2023-12-14T08:50:30;55.07;;;24.47;;
29938;SDS011;16799;50.844;5.304;2023-12-14T08:52:56;52.87;;;22.07;;
29938;SDS011;16799;50.844;5.304;2023-12-14T08:55:25;53.07;;;24.87;;
29938;SDS011;16799;50.844;5.304;2023-12-14T08:57:51;56.40;;;25.37;;
29938;SDS011;16799;50.844;5.304;2023-12-14T09:00:17;64.70;;;24.10;;
29938;SDS011;16799;50.844;5.304;2023-12-14T09:02:44;40.63;;;20.90;;
29938;SDS011;16799;50.844;5.304;2023-12-14T09:05:13;51.97;;;21.60;;
29938;SDS011;16799;50.844;5.304;2023-12-14T09:07:40;49.10;;;23.10;;
29938;SDS011;16799;50.844;5.304;2023-12-14T09:10:06;58.70;;;25.10;;
29938;SDS011;16799;50.844;5.304;2023-12-14T09:12:35;43.87;;;23.63;;
29938;SDS011;16799;50.844;5.304;2023-12-14T09:15:01;53.37;;;25.17;;
29938;SDS011;16799;50.844;5.304;2023-12-14T09:17:27;48.43;;;23.10;;
29938;SDS011;16799;50.844;5.304;2023-12-14T09:19:59;52.93;;;22.97;;
29938;SDS011;16799;50.844;5.304;2023-12-14T09:22:25;53.60;;;23.87;;
29938;SDS011;16799;50.844;5.304;2023-12-14T09:24:51;40.90;;;21.13;;
29938;SDS011;16799;50.844;5.304;2023-12-14T09:27:17;46.67;;;23.90;;
29938;SDS011;16799;50.844;5.304;2023-12-14T09:29:42;48.80;;;24.13;;
29938;SDS011;16799;50.844;5.304;2023-12-14T09:32:08;49.73;;;22.93;;
29938;SDS011;16799;50.844;5.304;2023-12-14T09:34:34;47.97;;;23.50;;
29938;SDS011;16799;50.844;5.304;2023-12-14T09:37:00;50.17;;;21.53;;
29938;SDS011;16799;50.844;5.304;2023-12-14T09:39:26;55.57;;;21.53;;
29938;SDS011;16799;50.844;5.304;2023-12-14T09:41:53;53.97;;;22.10;;
29938;SDS011;16799;50.844;5.304;2023-12-14T09:44:30;50.30;;;21.87;;
29938;SDS011;16799;50.844;5.304;2023-12-14T09:46:57;40.73;;;22.20;;
29938;SDS011;16799;50.844;5.304;2023-12-14T09:49:27;39.97;;;21.00;;
29938;SDS011;16799;50.844;5.304;2023-12-14T09:51:57;43.83;;;20.37;;
29938;SDS011;16799;50.844;5.304;2023-12-14T09:54:24;42.30;;;21.00;;
29938;SDS011;16799;50.844;5.304;2023-12-14T09:56:51;49.00;;;23.20;;
29938;SDS011;16799;50.844;5.304;2023-12-14T09:59:20;44.23;;;21.47;;
29938;SDS011;16799;50.844;5.304;2023-12-14T10:01:46;46.97;;;20.00;;
29938;SDS011;16799;50.844;5.304;2023-12-14T10:04:16;45.40;;;21.13;;
29938;SDS011;16799;50.844;5.304;2023-12-14T10:06:43;43.17;;;23.80;;
29938;SDS011;16799;50.844;5.304;2023-12-14T10:09:10;44.20;;;20.03;;
29938;SDS011;16799;50.844;5.304;2023-12-14T10:11:42;40.53;;;21.07;;
29938;SDS011;16799;50.844;5.304;2023-12-14T10:14:26;43.60;;;21.60;;
29938;SDS011;16799;50.844;5.304;2023-12-14T10:16:52;38.07;;;19.13;;
29938;SDS011;16799;50.844;5.304;2023-12-14T10:19:18;41.57;;;19.33;;
29938;SDS011;16799;50.844;5.304;2023-12-14T10:21:48;36.50;;;18.40;;
29938;SDS011;16799;50.844;5.304;2023-12-14T10:24:14;33.90;;;17.63;;
29938;SDS011;16799;50.844;5.304;2023-12-14T10:26:40;33.27;;;19.77;;
29938;SDS011;16799;50.844;5.304;2023-12-14T10:29:06;38.83;;;17.33;;
29938;SDS011;16799;50.844;5.304;2023-12-14T10:31:33;37.80;;;19.07;;
29938;SDS011;16799;50.844;5.304;2023-12-14T10:34:02;30.47;;;17.83;;
29938;SDS011;16799;50.844;5.304;2023-12-14T10:36:28;41.27;;;17.40;;
29938;SDS011;16799;50.844;5.304;2023-12-14T10:38:56;32.97;;;15.43;;
29938;SDS011;16799;50.844;5.304;2023-12-14T10:41:23;26.97;;;14.33;;
29938;SDS011;16799;50.844;5.304;2023-12-14T10:43:53;18.57;;;11.87;;
29938;SDS011;16799;50.844;5.304;2023-12-14T10:46:20;20.70;;;13.17;;
29938;SDS011;16799;50.844;5.304;2023-12-14T10:48:49;27.67;;;13.07;;
29938;SDS011;16799;50.844;5.304;2023-12-14T10:51:17;19.60;;;12.07;;
29938;SDS011;16799;50.844;5.304;2023-12-14T10:53:45;19.33;;;12.87;;
29938;SDS011;16799;50.844;5.304;2023-12-14T10:56:13;26.83;;;15.03;;
29938;SDS011;16799;50.844;5.304;2023-12-14T11:01:19;21.23;;;12.20;;
29938;SDS011;16799;50.844;5.304;2023-12-14T11:03:49;16.63;;;11.10;;
29938;SDS011;16799;50.844;5.304;2023-12-14T11:06:26;20.67;;;11.93;;
29938;SDS011;16799;50.844;5.304;2023-12-14T11:09:01;19.17;;;12.10;;
29938;SDS011;16799;50.844;5.304;2023-12-14T11:11:38;16.17;;;11.50;;
29938;SDS011;16799;50.844;5.304;2023-12-14T11:14:12;18.17;;;12.00;;
29938;SDS011;16799;50.844;5.304;2023-12-14T11:16:39;17.87;;;12.03;;
29938;SDS011;16799;50.844;5.304;2023-12-14T11:21:46;16.10;;;11.93;;
29938;SDS011;16799;50.844;5.304;2023-12-14T11:24:12;20.00;;;11.60;;
29938;SDS011;16799;50.844;5.304;2023-12-14T11:26:38;15.83;;;11.07;;
29938;SDS011;16799;50.844;5.304;2023-12-14T11:29:06;14.70;;;10.40;;
29938;SDS011;16799;50.844;5.304;2023-12-14T11:31:32;15.23;;;11.63;;
29938;SDS011;16799;50.844;5.304;2023-12-14T11:33:58;18.90;;;11.80;;
29938;SDS011;16799;50.844;5.304;2023-12-14T11:36:26;14.83;;;11.43;;
29938;SDS011;16799;50.844;5.304;2023-12-14T11:38:51;21.63;;;11.00;;
29938;SDS011;16799;50.844;5.304;2023-12-14T11:41:20;16.47;;;10.10;;
29938;SDS011;16799;50.844;5.304;2023-12-14T11:43:46;12.93;;;8.77;;
29938;SDS011;16799;50.844;5.304;2023-12-14T11:46:12;27.67;;;12.10;;
29938;SDS011;16799;50.844;5.304;2023-12-14T11:48:39;14.20;;;9.97;;
29938;SDS011;16799;50.844;5.304;2023-12-14T11:51:05;15.30;;;10.50;;
29938;SDS011;16799;50.844;5.304;2023-12-14T11:53:30;14.80;;;10.90;;
29938;SDS011;16799;50.844;5.304;2023-12-14T11:55:58;12.30;;;8.60;;
29938;SDS011;16799;50.844;5.304;2023-12-14T11:58:27;14.20;;;10.43;;
29938;SDS011;16799;50.844;5.304;2023-12-14T12:00:53;15.00;;;9.07;;
29938;SDS011;16799;50.844;5.304;2023-12-14T12:03:20;12.07;;;9.17;;
29938;SDS011;16799;50.844;5.304;2023-12-14T12:08:12;16.90;;;11.73;;
29938;SDS011;16799;50.844;5.304;2023-12-14T12:10:39;14.67;;;9.40;;
29938;SDS011;16799;50.844;5.304;2023-12-14T12:13:15;21.13;;;10.67;;
29938;SDS011;16799;50.844;5.304;2023-12-14T12:15:42;9.20;;;8.30;;
29938;SDS011;16799;50.844;5.304;2023-12-14T12:18:11;14.10;;;10.40;;
29938;SDS011;16799;50.844;5.304;2023-12-14T12:20:38;13.50;;;8.87;;
29938;SDS011;16799;50.844;5.304;2023-12-14T12:23:04;11.10;;;9.00;;
29938;SDS011;16799;50.844;5.304;2023-12-14T12:25:31;14.80;;;10.30;;
29938;SDS011;16799;50.844;5.304;2023-12-14T12:27:57;13.77;;;10.27;;
29938;SDS011;16799;50.844;5.304;2023-12-14T12:30:23;13.70;;;10.20;;
29938;SDS011;16799;50.844;5.304;2023-12-14T12:32:49;16.47;;;9.73;;
29938;SDS011;16799;50.844;5.304;2023-12-14T12:35:21;18.60;;;11.33;;
29938;SDS011;16799;50.844;5.304;2023-12-14T12:37:48;13.73;;;11.10;;
29938;SDS011;16799;50.844;5.304;2023-12-14T12:40:18;12.43;;;8.77;;
29938;SDS011;16799;50.844;5.304;2023-12-14T12:42:48;20.20;;;10.63;;
29938;SDS011;16799;50.844;5.304;2023-12-14T12:45:14;17.33;;;11.33;;
29938;SDS011;16799;50.844;5.304;2023-12-14T12:47:44;22.70;;;12.17;;
29938;SDS011;16799;50.844;5.304;2023-12-14T12:50:10;13.83;;;10.47;;
29938;SDS011;16799;50.844;5.304;2023-12-14T12:52:36;18.87;;;10.57;;
29938;SDS011;16799;50.844;5.304;2023-12-14T12:55:02;13.10;;;9.77;;
29938;SDS011;16799;50.844;5.304;2023-12-14T12:57:29;12.17;;;9.07;;
29938;SDS011;16799;50.844;5.304;2023-12-14T12:59:55;15.67;;;9.33;;
29938;SDS011;16799;50.844;5.304;2023-12-14T13:02:20;24.17;;;10.20;;
29938;SDS011;16799;50.844;5.304;2023-12-14T13:04:46;10.77;;;8.90;;
29938;SDS011;16799;50.844;5.304;2023-12-14T13:07:12;10.93;;;9.77;;
29938;SDS011;16799;50.844;5.304;2023-12-14T13:09:37;11.00;;;9.13;;
29938;SDS011;16799;50.844;5.304;2023-12-14T13:12:03;11.13;;;8.73;;
29938;SDS011;16799;50.844;5.304;2023-12-14T13:14:30;12.13;;;9.53;;
29938;SDS011;16799;50.844;5.304;2023-12-14T13:16:56;11.70;;;9.43;;
29938;SDS011;16799;50.844;5.304;2023-12-14T13:19:23;15.57;;;10.13;;
29938;SDS011;16799;50.844;5.304;2023-12-14T13:21:49;13.23;;;9.53;;
29938;SDS011;16799;50.844;5.304;2023-12-14T13:24:15;12.70;;;8.10;;
29938;SDS011;16799;50.844;5.304;2023-12-14T13:26:40;12.60;;;10.50;;
29938;SDS011;16799;50.844;5.304;2023-12-14T13:29:06;11.83;;;9.80;;
29938;SDS011;16799;50.844;5.304;2023-12-14T13:31:31;25.30;;;11.27;;
29938;SDS011;16799;50.844;5.304;2023-12-14T13:33:57;15.70;;;9.50;;
29938;SDS011;16799;50.844;5.304;2023-12-14T13:36:23;11.80;;;9.00;;
29938;SDS011;16799;50.844;5.304;2023-12-14T13:38:48;18.10;;;11.27;;
29938;SDS011;16799;50.844;5.304;2023-12-14T13:41:14;21.80;;;10.97;;
29938;SDS011;16799;50.844;5.304;2023-12-14T13:43:40;26.13;;;9.57;;
29938;SDS011;16799;50.844;5.304;2023-12-14T13:46:05;9.90;;;8.20;;
29938;SDS011;16799;50.844;5.304;2023-12-14T13:48:31;16.20;;;9.70;;
29938;SDS011;16799;50.844;5.304;2023-12-14T13:50:57;12.73;;;9.47;;
29938;SDS011;16799;50.844;5.304;2023-12-14T13:53:23;15.37;;;9.53;;
29938;SDS011;16799;50.844;5.304;2023-12-14T13:55:49;12.37;;;8.40;;
29938;SDS011;16799;50.844;5.304;2023-12-14T13:58:15;17.07;;;10.20;;
29938;SDS011;16799;50.844;5.304;2023-12-14T14:00:41;12.57;;;9.00;;
29938;SDS011;16799;50.844;5.304;2023-12-14T14:03:06;15.07;;;9.30;;
29938;SDS011;16799;50.844;5.304;2023-12-14T14:05:32;15.30;;;10.20;;
29938;SDS011;16799;50.844;5.304;2023-12-14T14:07:59;18.90;;;10.73;;
29938;SDS011;16799;50.844;5.304;2023-12-14T14:10:25;21.67;;;10.53;;
29938;SDS011;16799;50.844;5.304;2023-12-14T14:12:51;17.20;;;9.33;;
29938;SDS011;16799;50.844;5.304;2023-12-14T14:15:17;17.97;;;8.47;;
29938;SDS011;16799;50.844;5.304;2023-12-14T14:17:43;17.57;;;10.03;;
29938;SDS011;16799;50.844;5.304;2023-12-14T14:20:09;13.27;;;9.27;;
29938;SDS011;16799;50.844;5.304;2023-12-14T14:22:36;12.37;;;9.87;;
29938;SDS011;16799;50.844;5.304;2023-12-14T14:25:03;14.93;;;10.00;;